sensor_id;sensor_type;location;lat;lon;timestamp;temperature;humidity
72905;DHT22;61048;52.162;4.516;2022-10-29T00:00:31;19.30;69.70
72905;DHT22;61048;52.162;4.516;2022-10-29T00:02:58;19.20;69.70
72905;DHT22;61048;52.162;4.516;2022-10-29T00:05:25;19.20;69.90
72905;DHT22;61048;52.162;4.516;2022-10-29T00:07:52;19.20;69.80
72905;DHT22;61048;52.162;4.516;2022-10-29T00:10:19;19.20;69.80
72905;DHT22;61048;52.162;4.516;2022-10-29T00:12:47;19.20;69.80
72905;DHT22;61048;52.162;4.516;2022-10-29T00:15:14;19.20;69.70
72905;DHT22;61048;52.162;4.516;2022-10-29T00:17:40;19.20;69.70
72905;DHT22;61048;52.162;4.516;2022-10-29T00:20:08;19.20;69.80
72905;DHT22;61048;52.162;4.516;2022-10-29T00:22:35;19.20;69.80
72905;DHT22;61048;52.162;4.516;2022-10-29T00:25:02;19.20;69.80
72905;DHT22;61048;52.162;4.516;2022-10-29T00:27:29;19.20;69.70
72905;DHT22;61048;52.162;4.516;2022-10-29T00:29:57;19.20;69.80
72905;DHT22;61048;52.162;4.516;2022-10-29T00:32:24;19.20;69.90
72905;DHT22;61048;52.162;4.516;2022-10-29T00:34:51;19.20;70.00
72905;DHT22;61048;52.162;4.516;2022-10-29T00:37:18;19.20;69.90
72905;DHT22;61048;52.162;4.516;2022-10-29T00:39:44;19.20;70.00
72905;DHT22;61048;52.162;4.516;2022-10-29T00:42:13;19.20;70.10
72905;DHT22;61048;52.162;4.516;2022-10-29T00:44:41;19.20;70.00
72905;DHT22;61048;52.162;4.516;2022-10-29T00:47:18;19.10;70.10
72905;DHT22;61048;52.162;4.516;2022-10-29T00:49:48;19.20;70.10
72905;DHT22;61048;52.162;4.516;2022-10-29T00:52:17;19.10;70.20
72905;DHT22;61048;52.162;4.516;2022-10-29T00:54:45;19.10;70.20
72905;DHT22;61048;52.162;4.516;2022-10-29T00:57:16;19.10;70.20
72905;DHT22;61048;52.162;4.516;2022-10-29T00:59:46;19.10;70.50
72905;DHT22;61048;52.162;4.516;2022-10-29T01:02:15;19.10;70.40
72905;DHT22;61048;52.162;4.516;2022-10-29T01:04:42;19.10;70.40
72905;DHT22;61048;52.162;4.516;2022-10-29T01:07:09;19.20;70.50
72905;DHT22;61048;52.162;4.516;2022-10-29T01:09:36;19.20;70.60
72905;DHT22;61048;52.162;4.516;2022-10-29T01:12:20;19.10;70.40
72905;DHT22;61048;52.162;4.516;2022-10-29T01:14:59;19.20;70.40
72905;DHT22;61048;52.162;4.516;2022-10-29T01:17:35;19.20;70.40
72905;DHT22;61048;52.162;4.516;2022-10-29T01:23:34;19.10;70.40
72905;DHT22;61048;52.162;4.516;2022-10-29T01:26:19;19.10;70.40
72905;DHT22;61048;52.162;4.516;2022-10-29T01:29:08;19.10;70.30
72905;DHT22;61048;52.162;4.516;2022-10-29T01:31:43;19.10;70.30
72905;DHT22;61048;52.162;4.516;2022-10-29T01:34:21;19.10;70.40
72905;DHT22;61048;52.162;4.516;2022-10-29T01:36:54;19.10;70.40
72905;DHT22;61048;52.162;4.516;2022-10-29T01:39:30;19.10;70.40
72905;DHT22;61048;52.162;4.516;2022-10-29T01:42:04;19.10;70.40
72905;DHT22;61048;52.162;4.516;2022-10-29T01:44:36;19.10;70.40
72905;DHT22;61048;52.162;4.516;2022-10-29T01:47:09;19.10;70.40
72905;DHT22;61048;52.162;4.516;2022-10-29T01:49:39;19.10;70.50
72905;DHT22;61048;52.162;4.516;2022-10-29T01:52:11;19.10;70.60
72905;DHT22;61048;52.162;4.516;2022-10-29T01:54:40;19.10;70.60
72905;DHT22;61048;52.162;4.516;2022-10-29T01:57:26;19.10;70.50
72905;DHT22;61048;52.162;4.516;2022-10-29T01:59:55;19.10;70.30
72905;DHT22;61048;52.162;4.516;2022-10-29T02:02:29;19.10;70.40
72905;DHT22;61048;52.162;4.516;2022-10-29T02:05:06;19.10;70.30
72905;DHT22;61048;52.162;4.516;2022-10-29T02:07:43;19.10;70.30
72905;DHT22;61048;52.162;4.516;2022-10-29T02:10:18;19.10;70.40
72905;DHT22;61048;52.162;4.516;2022-10-29T02:12:46;19.00;70.50
72905;DHT22;61048;52.162;4.516;2022-10-29T02:15:17;19.00;70.30
72905;DHT22;61048;52.162;4.516;2022-10-29T02:17:46;19.00;70.40
72905;DHT22;61048;52.162;4.516;2022-10-29T02:20:15;19.00;70.40
72905;DHT22;61048;52.162;4.516;2022-10-29T02:22:42;19.00;70.40
72905;DHT22;61048;52.162;4.516;2022-10-29T02:25:09;19.00;70.40
72905;DHT22;61048;52.162;4.516;2022-10-29T02:27:36;19.00;70.40
72905;DHT22;61048;52.162;4.516;2022-10-29T02:30:04;19.00;70.40
72905;DHT22;61048;52.162;4.516;2022-10-29T02:32:31;19.00;70.40
72905;DHT22;61048;52.162;4.516;2022-10-29T02:35:00;19.00;70.40
72905;DHT22;61048;52.162;4.516;2022-10-29T02:37:27;19.00;70.40
72905;DHT22;61048;52.162;4.516;2022-10-29T02:39:54;19.00;70.40
72905;DHT22;61048;52.162;4.516;2022-10-29T02:42:21;19.00;70.40
72905;DHT22;61048;52.162;4.516;2022-10-29T02:44:48;19.00;70.40
72905;DHT22;61048;52.162;4.516;2022-10-29T02:47:15;19.00;70.50
72905;DHT22;61048;52.162;4.516;2022-10-29T02:49:42;19.00;70.50
72905;DHT22;61048;52.162;4.516;2022-10-29T02:52:11;19.00;70.50
72905;DHT22;61048;52.162;4.516;2022-10-29T02:54:38;19.00;70.50
72905;DHT22;61048;52.162;4.516;2022-10-29T02:57:05;19.00;70.50
72905;DHT22;61048;52.162;4.516;2022-10-29T02:59:32;19.00;70.50
72905;DHT22;61048;52.162;4.516;2022-10-29T03:01:59;19.00;70.60
72905;DHT22;61048;52.162;4.516;2022-10-29T03:04:26;19.00;70.50
72905;DHT22;61048;52.162;4.516;2022-10-29T03:06:53;19.00;70.50
72905;DHT22;61048;52.162;4.516;2022-10-29T03:09:21;19.00;70.40
72905;DHT22;61048;52.162;4.516;2022-10-29T03:11:48;19.00;70.70
72905;DHT22;61048;52.162;4.516;2022-10-29T03:14:15;19.00;70.60
72905;DHT22;61048;52.162;4.516;2022-10-29T03:16:42;19.00;70.70
72905;DHT22;61048;52.162;4.516;2022-10-29T03:19:09;19.00;70.70
72905;DHT22;61048;52.162;4.516;2022-10-29T03:21:36;19.00;70.70
72905;DHT22;61048;52.162;4.516;2022-10-29T03:24:03;18.90;70.70
72905;DHT22;61048;52.162;4.516;2022-10-29T03:26:31;18.90;70.70
72905;DHT22;61048;52.162;4.516;2022-10-29T03:28:58;18.90;70.60
72905;DHT22;61048;52.162;4.516;2022-10-29T03:31:25;18.90;70.60
72905;DHT22;61048;52.162;4.516;2022-10-29T03:33:52;18.90;70.60
72905;DHT22;61048;52.162;4.516;2022-10-29T03:36:19;18.90;70.60
72905;DHT22;61048;52.162;4.516;2022-10-29T03:38:45;18.90;70.60
72905;DHT22;61048;52.162;4.516;2022-10-29T03:41:12;18.90;70.70
72905;DHT22;61048;52.162;4.516;2022-10-29T03:43:40;18.90;70.60
72905;DHT22;61048;52.162;4.516;2022-10-29T03:46:07;18.90;70.70
72905;DHT22;61048;52.162;4.516;2022-10-29T03:48:34;18.90;70.60
72905;DHT22;61048;52.162;4.516;2022-10-29T03:51:03;18.90;70.60
72905;DHT22;61048;52.162;4.516;2022-10-29T03:53:32;18.90;70.70
72905;DHT22;61048;52.162;4.516;2022-10-29T03:56:00;18.90;70.60
72905;DHT22;61048;52.162;4.516;2022-10-29T03:58:27;18.90;70.60
72905;DHT22;61048;52.162;4.516;2022-10-29T04:00:56;18.90;70.80
72905;DHT22;61048;52.162;4.516;2022-10-29T04:03:24;18.90;70.80
72905;DHT22;61048;52.162;4.516;2022-10-29T04:05:51;18.90;70.70
72905;DHT22;61048;52.162;4.516;2022-10-29T04:08:18;18.90;70.70
72905;DHT22;61048;52.162;4.516;2022-10-29T04:10:45;18.90;70.70
72905;DHT22;61048;52.162;4.516;2022-10-29T04:13:13;18.80;70.80
72905;DHT22;61048;52.162;4.516;2022-10-29T04:15:40;18.90;70.70
72905;DHT22;61048;52.162;4.516;2022-10-29T04:18:09;18.80;70.80
72905;DHT22;61048;52.162;4.516;2022-10-29T04:20:38;18.80;70.70
72905;DHT22;61048;52.162;4.516;2022-10-29T04:23:05;18.80;70.90
72905;DHT22;61048;52.162;4.516;2022-10-29T04:25:32;18.80;70.80
72905;DHT22;61048;52.162;4.516;2022-10-29T04:27:59;18.80;70.70
72905;DHT22;61048;52.162;4.516;2022-10-29T04:30:26;18.80;70.80
72905;DHT22;61048;52.162;4.516;2022-10-29T04:32:55;18.80;70.90
72905;DHT22;61048;52.162;4.516;2022-10-29T04:35:24;18.80;70.90
72905;DHT22;61048;52.162;4.516;2022-10-29T04:37:51;18.80;70.80
72905;DHT22;61048;52.162;4.516;2022-10-29T04:40:20;18.80;70.70
72905;DHT22;61048;52.162;4.516;2022-10-29T04:42:47;18.80;71.00
72905;DHT22;61048;52.162;4.516;2022-10-29T04:45:14;18.80;70.90
72905;DHT22;61048;52.162;4.516;2022-10-29T04:47:41;18.80;70.80
72905;DHT22;61048;52.162;4.516;2022-10-29T04:50:08;18.80;70.80
72905;DHT22;61048;52.162;4.516;2022-10-29T04:52:37;18.80;70.90
72905;DHT22;61048;52.162;4.516;2022-10-29T04:55:04;18.80;70.90
72905;DHT22;61048;52.162;4.516;2022-10-29T04:57:31;18.80;70.80
72905;DHT22;61048;52.162;4.516;2022-10-29T04:59:58;18.80;70.90
72905;DHT22;61048;52.162;4.516;2022-10-29T05:02:24;18.80;70.80
72905;DHT22;61048;52.162;4.516;2022-10-29T05:04:51;18.80;71.00
72905;DHT22;61048;52.162;4.516;2022-10-29T05:07:18;18.80;70.90
72905;DHT22;61048;52.162;4.516;2022-10-29T05:09:46;18.80;71.00
72905;DHT22;61048;52.162;4.516;2022-10-29T05:12:13;18.80;71.10
72905;DHT22;61048;52.162;4.516;2022-10-29T05:14:40;18.80;71.10
72905;DHT22;61048;52.162;4.516;2022-10-29T05:17:07;18.80;71.10
72905;DHT22;61048;52.162;4.516;2022-10-29T05:19:33;18.80;71.10
72905;DHT22;61048;52.162;4.516;2022-10-29T05:22:00;18.80;71.20
72905;DHT22;61048;52.162;4.516;2022-10-29T05:24:27;18.80;71.20
72905;DHT22;61048;52.162;4.516;2022-10-29T05:26:55;18.80;71.20
72905;DHT22;61048;52.162;4.516;2022-10-29T05:29:22;18.80;71.20
72905;DHT22;61048;52.162;4.516;2022-10-29T05:31:51;18.80;71.30
72905;DHT22;61048;52.162;4.516;2022-10-29T05:34:18;18.80;71.20
72905;DHT22;61048;52.162;4.516;2022-10-29T05:36:46;18.80;71.30
72905;DHT22;61048;52.162;4.516;2022-10-29T05:39:12;18.80;71.40
72905;DHT22;61048;52.162;4.516;2022-10-29T05:41:39;18.80;71.30
72905;DHT22;61048;52.162;4.516;2022-10-29T05:44:08;18.80;71.40
72905;DHT22;61048;52.162;4.516;2022-10-29T05:46:34;18.80;71.50
72905;DHT22;61048;52.162;4.516;2022-10-29T05:49:01;18.80;71.40
72905;DHT22;61048;52.162;4.516;2022-10-29T05:51:28;18.90;71.70
72905;DHT22;61048;52.162;4.516;2022-10-29T05:53:55;18.90;71.50
72905;DHT22;61048;52.162;4.516;2022-10-29T05:56:22;18.90;71.40
72905;DHT22;61048;52.162;4.516;2022-10-29T05:58:49;18.90;71.50
72905;DHT22;61048;52.162;4.516;2022-10-29T06:01:17;18.90;71.50
72905;DHT22;61048;52.162;4.516;2022-10-29T06:03:45;18.80;71.60
72905;DHT22;61048;52.162;4.516;2022-10-29T06:06:12;18.90;71.60
72905;DHT22;61048;52.162;4.516;2022-10-29T06:08:38;18.90;71.50
72905;DHT22;61048;52.162;4.516;2022-10-29T06:11:05;18.80;71.60
72905;DHT22;61048;52.162;4.516;2022-10-29T06:13:32;18.80;71.70
72905;DHT22;61048;52.162;4.516;2022-10-29T06:15:59;18.80;71.40
72905;DHT22;61048;52.162;4.516;2022-10-29T06:18:28;18.80;71.50
72905;DHT22;61048;52.162;4.516;2022-10-29T06:20:57;18.80;71.50
72905;DHT22;61048;52.162;4.516;2022-10-29T06:23:24;18.80;71.50
72905;DHT22;61048;52.162;4.516;2022-10-29T06:25:52;18.80;71.40
72905;DHT22;61048;52.162;4.516;2022-10-29T06:28:19;18.80;71.50
72905;DHT22;61048;52.162;4.516;2022-10-29T06:30:47;18.80;71.40
72905;DHT22;61048;52.162;4.516;2022-10-29T06:33:14;18.80;71.50
72905;DHT22;61048;52.162;4.516;2022-10-29T06:35:42;18.80;71.50
72905;DHT22;61048;52.162;4.516;2022-10-29T06:38:09;18.80;71.40
72905;DHT22;61048;52.162;4.516;2022-10-29T06:40:36;18.80;71.40
72905;DHT22;61048;52.162;4.516;2022-10-29T06:43:05;18.80;71.50
72905;DHT22;61048;52.162;4.516;2022-10-29T06:45:32;18.80;71.50
72905;DHT22;61048;52.162;4.516;2022-10-29T06:48:00;18.80;71.60
72905;DHT22;61048;52.162;4.516;2022-10-29T06:50:29;18.80;71.50
72905;DHT22;61048;52.162;4.516;2022-10-29T06:52:59;18.80;71.50
72905;DHT22;61048;52.162;4.516;2022-10-29T06:55:27;18.80;71.50
72905;DHT22;61048;52.162;4.516;2022-10-29T06:57:58;18.80;71.50
72905;DHT22;61048;52.162;4.516;2022-10-29T07:00:25;18.80;71.50
72905;DHT22;61048;52.162;4.516;2022-10-29T07:02:52;18.80;71.50
72905;DHT22;61048;52.162;4.516;2022-10-29T07:05:20;18.80;71.60
72905;DHT22;61048;52.162;4.516;2022-10-29T07:07:46;18.80;71.50
72905;DHT22;61048;52.162;4.516;2022-10-29T07:10:15;18.80;71.50
72905;DHT22;61048;52.162;4.516;2022-10-29T07:12:42;18.80;71.60
72905;DHT22;61048;52.162;4.516;2022-10-29T07:15:10;18.80;71.60
72905;DHT22;61048;52.162;4.516;2022-10-29T07:17:37;18.80;71.60
72905;DHT22;61048;52.162;4.516;2022-10-29T07:20:05;18.80;71.80
72905;DHT22;61048;52.162;4.516;2022-10-29T07:22:33;18.80;71.70
72905;DHT22;61048;52.162;4.516;2022-10-29T07:25:00;18.80;71.80
72905;DHT22;61048;52.162;4.516;2022-10-29T07:27:28;18.80;71.90
72905;DHT22;61048;52.162;4.516;2022-10-29T07:29:55;18.80;71.80
72905;DHT22;61048;52.162;4.516;2022-10-29T07:32:22;18.80;71.90
72905;DHT22;61048;52.162;4.516;2022-10-29T07:34:49;18.90;71.80
72905;DHT22;61048;52.162;4.516;2022-10-29T07:37:16;18.90;72.30
72905;DHT22;61048;52.162;4.516;2022-10-29T07:39:42;18.90;72.10
72905;DHT22;61048;52.162;4.516;2022-10-29T07:42:09;18.90;72.00
72905;DHT22;61048;52.162;4.516;2022-10-29T07:44:37;18.80;71.90
72905;DHT22;61048;52.162;4.516;2022-10-29T07:47:04;18.90;71.70
72905;DHT22;61048;52.162;4.516;2022-10-29T07:49:31;18.90;71.60
72905;DHT22;61048;52.162;4.516;2022-10-29T07:51:58;18.90;71.60
72905;DHT22;61048;52.162;4.516;2022-10-29T07:54:25;18.90;71.80
72905;DHT22;61048;52.162;4.516;2022-10-29T07:56:52;18.90;72.00
72905;DHT22;61048;52.162;4.516;2022-10-29T07:59:19;18.90;72.50
72905;DHT22;61048;52.162;4.516;2022-10-29T08:01:47;19.00;73.20
72905;DHT22;61048;52.162;4.516;2022-10-29T08:04:14;19.00;73.70
72905;DHT22;61048;52.162;4.516;2022-10-29T08:06:41;19.10;73.30
72905;DHT22;61048;52.162;4.516;2022-10-29T08:09:09;19.10;73.70
72905;DHT22;61048;52.162;4.516;2022-10-29T08:11:36;19.10;73.20
72905;DHT22;61048;52.162;4.516;2022-10-29T08:14:03;19.10;72.60
72905;DHT22;61048;52.162;4.516;2022-10-29T08:16:30;19.00;72.40
72905;DHT22;61048;52.162;4.516;2022-10-29T08:18:59;19.00;72.20
72905;DHT22;61048;52.162;4.516;2022-10-29T08:21:26;19.00;72.10
72905;DHT22;61048;52.162;4.516;2022-10-29T08:23:53;19.00;71.90
72905;DHT22;61048;52.162;4.516;2022-10-29T08:26:20;19.00;71.80
72905;DHT22;61048;52.162;4.516;2022-10-29T08:28:47;19.00;71.60
72905;DHT22;61048;52.162;4.516;2022-10-29T08:31:14;19.00;71.50
72905;DHT22;61048;52.162;4.516;2022-10-29T08:33:40;19.10;71.50
72905;DHT22;61048;52.162;4.516;2022-10-29T08:36:09;19.10;72.20
72905;DHT22;61048;52.162;4.516;2022-10-29T08:38:36;19.10;72.20
72905;DHT22;61048;52.162;4.516;2022-10-29T08:41:25;19.10;72.20
72905;DHT22;61048;52.162;4.516;2022-10-29T08:44:22;19.10;72.20
72905;DHT22;61048;52.162;4.516;2022-10-29T08:46:55;19.10;72.20
72905;DHT22;61048;52.162;4.516;2022-10-29T08:49:27;19.10;72.20
72905;DHT22;61048;52.162;4.516;2022-10-29T08:52:03;19.10;72.30
72905;DHT22;61048;52.162;4.516;2022-10-29T08:54:33;19.10;72.20
72905;DHT22;61048;52.162;4.516;2022-10-29T08:57:06;19.10;72.50
72905;DHT22;61048;52.162;4.516;2022-10-29T08:59:39;19.10;72.40
72905;DHT22;61048;52.162;4.516;2022-10-29T09:02:13;19.10;72.60
72905;DHT22;61048;52.162;4.516;2022-10-29T09:04:41;19.10;72.50
72905;DHT22;61048;52.162;4.516;2022-10-29T09:07:27;19.10;72.50
72905;DHT22;61048;52.162;4.516;2022-10-29T09:10:03;19.10;72.30
72905;DHT22;61048;52.162;4.516;2022-10-29T09:12:46;19.10;72.60
72905;DHT22;61048;52.162;4.516;2022-10-29T09:15:43;19.10;72.40
72905;DHT22;61048;52.162;4.516;2022-10-29T09:18:26;19.10;72.40
72905;DHT22;61048;52.162;4.516;2022-10-29T09:21:00;19.10;72.40
72905;DHT22;61048;52.162;4.516;2022-10-29T09:23:44;19.10;72.60
72905;DHT22;61048;52.162;4.516;2022-10-29T09:26:15;19.10;72.40
72905;DHT22;61048;52.162;4.516;2022-10-29T09:28:50;19.20;72.40
72905;DHT22;61048;52.162;4.516;2022-10-29T09:31:24;19.10;72.60
72905;DHT22;61048;52.162;4.516;2022-10-29T09:33:57;19.10;72.50
72905;DHT22;61048;52.162;4.516;2022-10-29T09:36:29;19.10;72.50
72905;DHT22;61048;52.162;4.516;2022-10-29T09:39:00;19.10;72.50
72905;DHT22;61048;52.162;4.516;2022-10-29T09:41:31;19.10;72.60
72905;DHT22;61048;52.162;4.516;2022-10-29T09:44:00;19.10;72.60
72905;DHT22;61048;52.162;4.516;2022-10-29T09:46:34;19.10;72.50
72905;DHT22;61048;52.162;4.516;2022-10-29T09:49:13;19.10;72.30
72905;DHT22;61048;52.162;4.516;2022-10-29T09:51:45;19.20;72.40
72905;DHT22;61048;52.162;4.516;2022-10-29T09:54:15;19.20;72.40
72905;DHT22;61048;52.162;4.516;2022-10-29T09:56:44;19.20;72.20
72905;DHT22;61048;52.162;4.516;2022-10-29T09:59:17;19.20;72.40
72905;DHT22;61048;52.162;4.516;2022-10-29T10:01:49;19.20;72.10
72905;DHT22;61048;52.162;4.516;2022-10-29T10:04:21;19.20;72.10
72905;DHT22;61048;52.162;4.516;2022-10-29T10:07:06;19.20;72.20
72905;DHT22;61048;52.162;4.516;2022-10-29T10:09:50;19.20;72.30
72905;DHT22;61048;52.162;4.516;2022-10-29T10:12:18;19.20;72.30
72905;DHT22;61048;52.162;4.516;2022-10-29T10:14:45;19.20;72.30
72905;DHT22;61048;52.162;4.516;2022-10-29T10:17:13;19.20;72.30
72905;DHT22;61048;52.162;4.516;2022-10-29T10:19:43;19.20;72.30
72905;DHT22;61048;52.162;4.516;2022-10-29T10:22:17;19.30;72.40
72905;DHT22;61048;52.162;4.516;2022-10-29T10:24:44;19.30;72.40
72905;DHT22;61048;52.162;4.516;2022-10-29T10:27:27;19.30;72.30
72905;DHT22;61048;52.162;4.516;2022-10-29T10:30:22;19.30;72.30
72905;DHT22;61048;52.162;4.516;2022-10-29T10:32:50;19.30;72.10
72905;DHT22;61048;52.162;4.516;2022-10-29T10:35:28;19.30;72.20
72905;DHT22;61048;52.162;4.516;2022-10-29T10:37:55;19.40;72.10
72905;DHT22;61048;52.162;4.516;2022-10-29T10:40:24;19.40;72.00
72905;DHT22;61048;52.162;4.516;2022-10-29T10:42:53;19.40;71.80
72905;DHT22;61048;52.162;4.516;2022-10-29T10:45:27;19.40;72.10
72905;DHT22;61048;52.162;4.516;2022-10-29T10:47:57;19.40;72.00
72905;DHT22;61048;52.162;4.516;2022-10-29T10:50:27;19.40;72.00
72905;DHT22;61048;52.162;4.516;2022-10-29T10:52:57;19.50;71.70
72905;DHT22;61048;52.162;4.516;2022-10-29T10:55:26;19.50;71.80
72905;DHT22;61048;52.162;4.516;2022-10-29T10:58:00;19.50;71.70
72905;DHT22;61048;52.162;4.516;2022-10-29T11:00:33;19.50;71.70
72905;DHT22;61048;52.162;4.516;2022-10-29T11:03:11;19.50;71.60
72905;DHT22;61048;52.162;4.516;2022-10-29T11:05:42;19.50;71.40
72905;DHT22;61048;52.162;4.516;2022-10-29T11:08:15;19.50;71.40
72905;DHT22;61048;52.162;4.516;2022-10-29T11:10:42;19.50;71.30
72905;DHT22;61048;52.162;4.516;2022-10-29T11:13:16;19.50;71.40
72905;DHT22;61048;52.162;4.516;2022-10-29T11:15:49;19.50;71.40
72905;DHT22;61048;52.162;4.516;2022-10-29T11:18:21;19.50;71.40
72905;DHT22;61048;52.162;4.516;2022-10-29T11:20:58;19.50;71.40
72905;DHT22;61048;52.162;4.516;2022-10-29T11:23:32;19.50;71.40
72905;DHT22;61048;52.162;4.516;2022-10-29T11:26:05;19.50;71.30
72905;DHT22;61048;52.162;4.516;2022-10-29T11:28:38;19.60;71.30
72905;DHT22;61048;52.162;4.516;2022-10-29T11:31:12;19.60;71.10
72905;DHT22;61048;52.162;4.516;2022-10-29T11:33:49;19.60;71.00
72905;DHT22;61048;52.162;4.516;2022-10-29T11:36:18;19.60;71.10
72905;DHT22;61048;52.162;4.516;2022-10-29T11:38:49;19.60;71.00
72905;DHT22;61048;52.162;4.516;2022-10-29T11:41:24;19.70;70.90
72905;DHT22;61048;52.162;4.516;2022-10-29T11:43:53;19.70;71.00
72905;DHT22;61048;52.162;4.516;2022-10-29T11:46:28;19.70;71.00
72905;DHT22;61048;52.162;4.516;2022-10-29T11:49:06;19.70;70.80
72905;DHT22;61048;52.162;4.516;2022-10-29T11:51:42;19.70;70.90
72905;DHT22;61048;52.162;4.516;2022-10-29T11:54:22;19.70;70.90
72905;DHT22;61048;52.162;4.516;2022-10-29T11:56:58;19.70;70.90
72905;DHT22;61048;52.162;4.516;2022-10-29T11:59:36;19.70;70.90
72905;DHT22;61048;52.162;4.516;2022-10-29T12:02:21;19.70;70.90
72905;DHT22;61048;52.162;4.516;2022-10-29T12:04:57;19.80;70.90
72905;DHT22;61048;52.162;4.516;2022-10-29T12:07:36;19.80;71.00
72905;DHT22;61048;52.162;4.516;2022-10-29T12:10:18;19.80;70.70
72905;DHT22;61048;52.162;4.516;2022-10-29T12:12:54;19.80;70.90
72905;DHT22;61048;52.162;4.516;2022-10-29T12:15:28;19.80;71.10
72905;DHT22;61048;52.162;4.516;2022-10-29T12:18:03;19.80;71.00
72905;DHT22;61048;52.162;4.516;2022-10-29T12:20:36;19.80;71.10
72905;DHT22;61048;52.162;4.516;2022-10-29T12:23:14;19.90;70.70
72905;DHT22;61048;52.162;4.516;2022-10-29T12:25:56;19.90;70.90
72905;DHT22;61048;52.162;4.516;2022-10-29T12:28:35;19.90;70.60
72905;DHT22;61048;52.162;4.516;2022-10-29T12:31:18;19.90;70.50
72905;DHT22;61048;52.162;4.516;2022-10-29T12:33:51;19.90;70.50
72905;DHT22;61048;52.162;4.516;2022-10-29T12:36:29;20.00;70.50
72905;DHT22;61048;52.162;4.516;2022-10-29T12:38:58;20.00;70.40
72905;DHT22;61048;52.162;4.516;2022-10-29T12:41:30;20.00;70.50
72905;DHT22;61048;52.162;4.516;2022-10-29T12:44:06;20.00;70.40
72905;DHT22;61048;52.162;4.516;2022-10-29T12:46:41;20.00;70.60
72905;DHT22;61048;52.162;4.516;2022-10-29T12:49:14;20.00;70.30
72905;DHT22;61048;52.162;4.516;2022-10-29T12:51:48;20.00;70.30
72905;DHT22;61048;52.162;4.516;2022-10-29T12:54:27;20.00;70.40
72905;DHT22;61048;52.162;4.516;2022-10-29T12:57:03;20.00;70.50
72905;DHT22;61048;52.162;4.516;2022-10-29T12:59:33;20.00;70.50
72905;DHT22;61048;52.162;4.516;2022-10-29T13:02:24;20.00;70.60
72905;DHT22;61048;52.162;4.516;2022-10-29T13:05:11;20.10;70.40
72905;DHT22;61048;52.162;4.516;2022-10-29T13:08:18;20.10;70.50
72905;DHT22;61048;52.162;4.516;2022-10-29T13:10:48;20.10;70.50
72905;DHT22;61048;52.162;4.516;2022-10-29T13:16:06;20.10;70.40
72905;DHT22;61048;52.162;4.516;2022-10-29T13:18:50;20.10;70.30
72905;DHT22;61048;52.162;4.516;2022-10-29T13:21:58;20.10;70.40
72905;DHT22;61048;52.162;4.516;2022-10-29T13:24:26;20.10;70.20
72905;DHT22;61048;52.162;4.516;2022-10-29T13:27:02;20.20;70.40
72905;DHT22;61048;52.162;4.516;2022-10-29T13:29:47;20.20;70.30
72905;DHT22;61048;52.162;4.516;2022-10-29T13:32:32;20.20;70.50
72905;DHT22;61048;52.162;4.516;2022-10-29T13:35:02;20.20;70.60
72905;DHT22;61048;52.162;4.516;2022-10-29T13:37:47;20.20;70.40
72905;DHT22;61048;52.162;4.516;2022-10-29T13:43:23;20.20;70.40
72905;DHT22;61048;52.162;4.516;2022-10-29T13:46:00;20.20;70.30
72905;DHT22;61048;52.162;4.516;2022-10-29T13:48:30;20.20;70.60
72905;DHT22;61048;52.162;4.516;2022-10-29T13:51:04;20.20;70.60
72905;DHT22;61048;52.162;4.516;2022-10-29T13:53:40;20.20;70.40
72905;DHT22;61048;52.162;4.516;2022-10-29T13:56:10;20.20;70.40
72905;DHT22;61048;52.162;4.516;2022-10-29T13:58:41;20.20;70.40
72905;DHT22;61048;52.162;4.516;2022-10-29T14:01:13;20.20;70.30
72905;DHT22;61048;52.162;4.516;2022-10-29T14:03:54;20.20;70.20
72905;DHT22;61048;52.162;4.516;2022-10-29T14:06:29;20.20;70.30
72905;DHT22;61048;52.162;4.516;2022-10-29T14:09:03;20.20;70.40
72905;DHT22;61048;52.162;4.516;2022-10-29T14:11:38;20.20;70.30
72905;DHT22;61048;52.162;4.516;2022-10-29T14:14:19;20.20;70.40
72905;DHT22;61048;52.162;4.516;2022-10-29T14:16:47;20.20;70.40
72905;DHT22;61048;52.162;4.516;2022-10-29T14:19:18;20.20;70.20
72905;DHT22;61048;52.162;4.516;2022-10-29T14:21:47;20.20;70.30
72905;DHT22;61048;52.162;4.516;2022-10-29T14:24:15;20.20;70.30
72905;DHT22;61048;52.162;4.516;2022-10-29T14:26:43;20.20;70.20
72905;DHT22;61048;52.162;4.516;2022-10-29T14:29:16;20.20;70.30
72905;DHT22;61048;52.162;4.516;2022-10-29T14:31:44;20.20;70.40
72905;DHT22;61048;52.162;4.516;2022-10-29T14:34:22;20.20;70.20
72905;DHT22;61048;52.162;4.516;2022-10-29T14:36:50;20.20;70.40
72905;DHT22;61048;52.162;4.516;2022-10-29T14:39:21;20.20;70.40
72905;DHT22;61048;52.162;4.516;2022-10-29T14:41:49;20.20;70.40
72905;DHT22;61048;52.162;4.516;2022-10-29T14:44:19;20.20;70.50
72905;DHT22;61048;52.162;4.516;2022-10-29T14:46:51;20.20;70.50
72905;DHT22;61048;52.162;4.516;2022-10-29T14:49:23;20.20;70.60
72905;DHT22;61048;52.162;4.516;2022-10-29T14:51:55;20.20;70.60
72905;DHT22;61048;52.162;4.516;2022-10-29T14:54:25;20.20;70.50
72905;DHT22;61048;52.162;4.516;2022-10-29T14:56:55;20.20;70.60
72905;DHT22;61048;52.162;4.516;2022-10-29T14:59:24;20.20;70.60
72905;DHT22;61048;52.162;4.516;2022-10-29T15:01:54;20.20;70.80
72905;DHT22;61048;52.162;4.516;2022-10-29T15:04:23;20.20;70.80
72905;DHT22;61048;52.162;4.516;2022-10-29T15:06:54;20.20;70.90
72905;DHT22;61048;52.162;4.516;2022-10-29T15:09:22;20.20;71.00
72905;DHT22;61048;52.162;4.516;2022-10-29T15:12:00;20.20;71.10
72905;DHT22;61048;52.162;4.516;2022-10-29T15:14:34;20.20;70.90
72905;DHT22;61048;52.162;4.516;2022-10-29T15:17:10;20.20;70.90
72905;DHT22;61048;52.162;4.516;2022-10-29T15:19:42;20.20;71.30
72905;DHT22;61048;52.162;4.516;2022-10-29T15:22:18;20.20;71.40
72905;DHT22;61048;52.162;4.516;2022-10-29T15:24:47;20.10;71.40
72905;DHT22;61048;52.162;4.516;2022-10-29T15:27:15;20.10;71.50
72905;DHT22;61048;52.162;4.516;2022-10-29T15:29:45;20.10;71.50
72905;DHT22;61048;52.162;4.516;2022-10-29T15:32:15;20.10;71.70
72905;DHT22;61048;52.162;4.516;2022-10-29T15:34:47;20.10;71.60
72905;DHT22;61048;52.162;4.516;2022-10-29T15:37:23;20.10;71.70
72905;DHT22;61048;52.162;4.516;2022-10-29T15:40:00;20.10;71.40
72905;DHT22;61048;52.162;4.516;2022-10-29T15:42:28;20.10;71.90
72905;DHT22;61048;52.162;4.516;2022-10-29T15:45:27;20.10;72.00
72905;DHT22;61048;52.162;4.516;2022-10-29T15:47:56;20.10;71.80
72905;DHT22;61048;52.162;4.516;2022-10-29T15:50:27;20.10;71.90
72905;DHT22;61048;52.162;4.516;2022-10-29T15:52:57;20.10;72.00
72905;DHT22;61048;52.162;4.516;2022-10-29T15:55:28;20.10;71.90
72905;DHT22;61048;52.162;4.516;2022-10-29T15:58:00;20.00;72.00
72905;DHT22;61048;52.162;4.516;2022-10-29T16:00:28;20.00;72.00
72905;DHT22;61048;52.162;4.516;2022-10-29T16:03:00;20.00;72.20